Time;durP1;ratioP1;P1;durP2;ratioP2;P2;SDS_P1;SDS_P2;PMS_P1;PMS_P2;Temp;Humidity;BMP_temperature;BMP_pressure;BME280_temperature;BME280_humidity;BME280_pressure;Samples;Min_cycle;Max_cycle;Signal;HPM_P1;HPM_P2
2023/04/07 00:01:48;;;;;;;21.30;8.10;;;-0.10;84.50;;;;;;5084075;28;20028;-54
2023/04/07 00:04:13;;;;;;;16.80;7.72;;;-0.10;83.20;;;;;;5082484;28;20031;-56
2023/04/07 00:06:39;;;;;;;18.63;8.25;;;-0.10;82.20;;;;;;5071154;28;20254;-56
2023/04/07 00:09:05;;;;;;;16.85;7.63;;;-0.10;83.00;;;;;;5078786;28;20051;-55
2023/04/07 00:11:30;;;;;;;18.58;9.30;;;-0.10;82.40;;;;;;5068499;28;20032;-54
2023/04/07 00:13:56;;;;;;;16.63;8.73;;;-0.10;82.30;;;;;;5074702;28;20040;-56
2023/04/07 00:16:21;;;;;;;13.57;7.72;;;-0.10;84.40;;;;;;5085904;28;20059;-56
2023/04/07 00:18:47;;;;;;;17.05;8.35;;;-0.10;86.70;;;;;;5084955;28;20036;-56
2023/04/07 00:21:12;;;;;;;15.90;8.00;;;-0.20;85.70;;;;;;5072046;28;20107;-56
2023/04/07 00:23:38;;;;;;;14.23;7.35;;;-0.20;84.60;;;;;;5078700;28;20165;-57
2023/04/07 00:26:04;;;;;;;17.10;8.98;;;-0.20;84.40;;;;;;5067871;28;20785;-52
2023/04/07 00:28:29;;;;;;;15.00;7.57;;;-0.20;87.20;;;;;;5071338;28;20430;-56
2023/04/07 00:30:55;;;;;;;19.38;8.43;;;-0.20;89.20;;;;;;5073051;28;20025;-56
2023/04/07 00:33:20;;;;;;;14.57;7.07;;;-0.20;90.20;;;;;;5080065;28;20127;-55
2023/04/07 00:35:46;;;;;;;19.83;8.45;;;-0.20;90.00;;;;;;5078035;28;20028;-57
2023/04/07 00:38:11;;;;;;;12.48;7.53;;;-0.20;90.00;;;;;;5076341;28;20044;-56
2023/04/07 00:40:37;;;;;;;16.27;7.80;;;-0.20;88.90;;;;;;5085926;28;20030;-56
2023/04/07 00:43:03;;;;;;;14.80;7.45;;;-0.20;88.00;;;;;;5070783;28;20115;-56
2023/04/07 00:45:28;;;;;;;15.45;7.10;;;-0.30;90.30;;;;;;5073617;28;20168;-55
2023/04/07 00:47:57;;;;;;;16.50;7.78;;;-0.20;87.80;;;;;;5074642;28;20040;-57
2023/04/07 00:50:22;;;;;;;18.50;7.68;;;-0.20;88.30;;;;;;5067630;28;20531;-56
2023/04/07 00:52:48;;;;;;;18.85;8.15;;;-0.20;91.00;;;;;;5075304;28;20024;-56
2023/04/07 00:55:13;;;;;;;8.88;5.25;;;-0.20;91.10;;;;;;5087679;28;20032;-57
2023/04/07 00:57:39;;;;;;;18.95;8.52;;;-0.20;89.50;;;;;;5069829;28;20035;-55
2023/04/07 01:00:05;;;;;;;15.45;7.15;;;-0.20;90.40;;;;;;5087248;28;20095;-56
2023/04/07 01:02:50;;;;;;;13.75;6.57;;;-0.20;90.10;;;;;;5089720;28;20052;-56
2023/04/07 01:05:22;;;;;;;15.82;7.90;;;-0.20;90.50;;;;;;5077826;28;20090;-56
2023/04/07 01:07:52;;;;;;;17.67;8.10;;;-0.20;91.20;;;;;;5087662;28;20028;-57
2023/04/07 01:10:30;;;;;;;14.88;7.80;;;-0.20;91.50;;;;;;5089571;28;20039;-56
2023/04/07 01:13:16;;;;;;;14.90;8.02;;;-0.20;91.90;;;;;;5056936;28;20032;-55
2023/04/07 01:15:44;;;;;;;16.38;7.43;;;-0.20;91.20;;;;;;5089395;28;20031;-56
2023/04/07 01:18:16;;;;;;;13.48;6.70;;;-0.20;91.80;;;;;;5080826;28;20031;-57
2023/04/07 01:20:44;;;;;;;16.52;8.55;;;-0.20;90.80;;;;;;5069115;28;20017;-56
2023/04/07 01:23:20;;;;;;;14.75;8.15;;;-0.20;90.30;;;;;;5080499;28;20383;-55
2023/04/07 01:26:07;;;;;;;15.73;8.95;;;-0.20;90.10;;;;;;5069113;28;20028;-57
2023/04/07 01:28:56;;;;;;;20.10;9.00;;;-0.30;89.90;;;;;;5067006;28;20039;-56
2023/04/07 01:31:24;;;;;;;20.63;8.65;;;-0.20;89.20;;;;;;5048986;28;20032;-56
2023/04/07 01:33:51;;;;;;;17.90;8.20;;;-0.20;89.60;;;;;;5086547;28;20044;-56
2023/04/07 01:36:18;;;;;;;19.42;9.00;;;-0.20;89.60;;;;;;5089149;28;20115;-54
2023/04/07 01:38:44;;;;;;;13.32;6.75;;;-0.20;89.80;;;;;;5067498;28;20036;-57
2023/04/07 01:41:13;;;;;;;20.88;9.10;;;-0.20;90.10;;;;;;5088686;28;20035;-57
2023/04/07 01:43:40;;;;;;;17.25;8.35;;;-0.10;91.00;;;;;;5077703;28;20563;-54
2023/04/07 01:46:06;;;;;;;15.48;8.05;;;-0.10;91.00;;;;;;5088664;28;20031;-54
2023/04/07 01:48:33;;;;;;;17.63;7.80;;;-0.10;91.80;;;;;;5077153;28;20032;-56
2023/04/07 01:50:59;;;;;;;17.10;8.18;;;0.00;90.90;;;;;;5088742;28;20097;-56
2023/04/07 01:53:25;;;;;;;13.85;6.50;;;0.00;91.70;;;;;;5076131;28;20028;-57
2023/04/07 01:55:53;;;;;;;14.95;7.03;;;0.10;91.90;;;;;;5088908;28;20114;-56
2023/04/07 01:58:18;;;;;;;12.65;6.68;;;0.10;91.60;;;;;;5074878;28;20618;-56
2023/04/07 02:00:44;;;;;;;12.20;6.57;;;0.20;92.90;;;;;;5088741;28;20067;-56
2023/04/07 02:03:19;;;;;;;13.43;6.85;;;0.20;92.20;;;;;;5074047;28;20023;-56
2023/04/07 02:05:48;;;;;;;11.48;6.47;;;0.30;91.30;;;;;;5080297;28;20024;-55
2023/04/07 02:08:16;;;;;;;12.48;6.82;;;0.40;90.70;;;;;;5073899;28;20519;-56
2023/04/07 02:10:45;;;;;;;11.20;6.15;;;0.40;90.00;;;;;;5087446;28;20035;-58
2023/04/07 02:13:15;;;;;;;12.80;6.28;;;0.50;89.80;;;;;;5073610;28;20090;-56
2023/04/07 02:15:44;;;;;;;13.23;5.75;;;0.50;88.50;;;;;;5089779;28;20028;-57
2023/04/07 02:18:11;;;;;;;11.13;5.95;;;0.60;88.50;;;;;;5084168;28;20020;-56
2023/04/07 02:20:38;;;;;;;8.07;4.82;;;0.60;89.80;;;;;;5072583;28;20013;-57
2023/04/07 02:23:09;;;;;;;13.13;6.00;;;0.70;89.80;;;;;;5084514;28;20059;-57
2023/04/07 02:25:37;;;;;;;8.88;5.43;;;0.70;87.60;;;;;;5072567;28;20442;-56
2023/04/07 02:28:03;;;;;;;12.77;6.28;;;0.80;90.30;;;;;;5084577;28;20016;-57
2023/04/07 02:30:30;;;;;;;17.67;6.28;;;0.80;87.50;;;;;;5072545;28;20711;-57
2023/04/07 02:32:56;;;;;;;13.02;6.35;;;0.90;88.10;;;;;;5083937;28;20040;-54
2023/04/07 02:35:22;;;;;;;14.45;5.68;;;0.90;87.00;;;;;;5072426;28;20025;-57
2023/04/07 02:37:47;;;;;;;12.93;6.53;;;1.00;86.70;;;;;;5085171;28;20028;-57
2023/04/07 02:40:13;;;;;;;9.93;5.50;;;1.00;85.60;;;;;;5072575;28;20209;-57
2023/04/07 02:42:39;;;;;;;14.82;6.00;;;1.10;86.80;;;;;;5089608;28;20032;-57
2023/04/07 02:45:06;;;;;;;16.55;6.25;;;1.00;86.60;;;;;;5092525;28;20491;-54
2023/04/07 02:47:33;;;;;;;12.45;6.28;;;1.10;85.20;;;;;;5072070;28;20036;-57
2023/04/07 02:49:58;;;;;;;15.20;6.35;;;1.10;84.70;;;;;;5092187;28;20031;-56
2023/04/07 02:52:24;;;;;;;12.63;5.75;;;1.10;84.80;;;;;;5090236;28;20412;-57
2023/04/07 02:54:50;;;;;;;10.65;5.55;;;1.10;84.00;;;;;;5072043;28;20101;-57
2023/04/07 02:57:15;;;;;;;10.02;5.22;;;1.10;83.80;;;;;;5091482;28;20746;-57
2023/04/07 02:59:41;;;;;;;12.38;5.38;;;1.10;83.70;;;;;;5070550;28;20017;-56
2023/04/07 03:02:06;;;;;;;12.23;5.70;;;1.10;83.30;;;;;;5091382;28;20027;-56
2023/04/07 03:04:33;;;;;;;8.35;4.53;;;1.10;82.90;;;;;;5071393;28;20035;-56
2023/04/07 03:06:58;;;;;;;10.25;4.95;;;1.10;86.10;;;;;;5081679;28;20028;-56
2023/04/07 03:09:24;;;;;;;10.82;5.68;;;1.10;86.10;;;;;;5070492;28;20093;-56
2023/04/07 03:11:49;;;;;;;10.13;5.75;;;1.00;84.10;;;;;;5091395;28;20073;-56
2023/04/07 03:14:15;;;;;;;11.88;5.35;;;1.10;84.10;;;;;;5070475;28;20025;-56
2023/04/07 03:16:41;;;;;;;7.97;4.35;;;1.10;84.30;;;;;;5091008;28;20052;-56
2023/04/07 03:19:07;;;;;;;12.20;4.70;;;1.10;85.80;;;;;;5070311;28;20036;-56
2023/04/07 03:21:33;;;;;;;12.38;5.93;;;1.10;84.80;;;;;;5091295;28;20116;-56
2023/04/07 03:23:58;;;;;;;9.98;4.97;;;1.10;85.40;;;;;;5070087;28;20104;-57
2023/04/07 03:26:24;;;;;;;10.70;5.00;;;1.10;84.70;;;;;;5090861;28;20035;-56
2023/04/07 03:28:49;;;;;;;9.57;4.88;;;1.10;84.40;;;;;;5070142;28;20029;-56
2023/04/07 03:31:15;;;;;;;9.73;4.88;;;1.10;83.80;;;;;;5090868;28;20609;-56
2023/04/07 03:33:40;;;;;;;10.05;4.22;;;1.10;84.80;;;;;;5077152;28;20051;-54
2023/04/07 03:36:07;;;;;;;12.25;5.55;;;1.10;84.10;;;;;;5091700;28;20126;-56
2023/04/07 03:38:32;;;;;;;10.13;5.40;;;1.20;83.20;;;;;;5088487;28;20031;-56
2023/04/07 03:40:58;;;;;;;10.98;5.57;;;1.20;83.30;;;;;;5071386;28;20591;-57
2023/04/07 03:43:23;;;;;;;7.85;5.47;;;1.20;83.20;;;;;;5090880;28;20503;-57
2023/04/07 03:45:49;;;;;;;10.68;4.38;;;1.20;82.70;;;;;;5051228;28;20033;-56
2023/04/07 03:48:15;;;;;;;10.07;5.03;;;1.20;82.70;;;;;;5090196;28;20039;-56
2023/04/07 03:50:40;;;;;;;10.98;4.82;;;1.30;85.30;;;;;;5069885;28;20033;-56
2023/04/07 03:53:07;;;;;;;12.35;5.18;;;1.30;85.60;;;;;;5090685;28;20032;-56
2023/04/07 03:55:33;;;;;;;12.20;5.25;;;1.30;84.30;;;;;;5069842;28;20094;-56
2023/04/07 03:57:59;;;;;;;12.55;5.18;;;1.20;83.00;;;;;;5090558;28;20503;-55
2023/04/07 04:00:25;;;;;;;8.65;4.97;;;1.30;82.70;;;;;;5069629;28;20029;-55
2023/04/07 04:02:51;;;;;;;13.18;5.50;;;1.30;82.40;;;;;;5090601;28;20029;-56
2023/04/07 04:05:17;;;;;;;10.00;5.45;;;1.30;82.70;;;;;;5071365;28;20032;-56
2023/04/07 04:07:42;;;;;;;7.63;4.75;;;1.40;82.30;;;;;;5091040;28;20019;-56
2023/04/07 04:10:08;;;;;;;8.43;5.15;;;1.40;82.80;;;;;;5069676;28;20045;-54
2023/04/07 04:12:33;;;;;;;8.73;4.82;;;1.40;82.30;;;;;;5090343;28;20438;-55
2023/04/07 04:14:59;;;;;;;11.23;5.38;;;1.40;83.10;;;;;;5069323;28;20033;-55
2023/04/07 04:17:25;;;;;;;11.30;4.72;;;1.50;82.70;;;;;;5090155;28;20028;-55
2023/04/07 04:19:50;;;;;;;7.97;4.43;;;1.50;83.00;;;;;;5069415;28;20074;-56
2023/04/07 04:22:16;;;;;;;9.02;5.22;;;1.50;82.60;;;;;;5090143;28;20105;-55
2023/04/07 04:24:42;;;;;;;8.93;5.43;;;1.50;82.40;;;;;;5079978;28;20039;-55
2023/04/07 04:27:07;;;;;;;9.52;5.20;;;1.50;82.70;;;;;;5090614;28;20100;-56
2023/04/07 04:29:33;;;;;;;9.52;4.88;;;1.60;83.40;;;;;;5078928;28;20039;-54
2023/04/07 04:31:58;;;;;;;11.77;5.40;;;1.60;83.90;;;;;;5090365;28;20036;-53
2023/04/07 04:34:24;;;;;;;10.32;5.50;;;1.60;83.70;;;;;;5078060;28;20106;-56
2023/04/07 04:36:49;;;;;;;10.65;4.97;;;1.70;84.20;;;;;;5090497;28;20081;-56
2023/04/07 04:39:15;;;;;;;10.40;5.10;;;1.70;83.70;;;;;;5075663;28;20557;-52
2023/04/07 04:41:40;;;;;;;9.20;4.20;;;1.80;84.60;;;;;;5089106;28;20713;-56
2023/04/07 04:44:06;;;;;;;8.23;4.22;;;1.80;84.50;;;;;;5082404;28;20142;-56
2023/04/07 04:46:32;;;;;;;6.75;4.13;;;1.90;86.90;;;;;;5070086;28;20035;-56
2023/04/07 04:48:58;;;;;;;8.07;4.85;;;1.90;87.30;;;;;;5082637;28;20028;-56
2023/04/07 04:51:23;;;;;;;7.78;3.97;;;2.00;84.50;;;;;;5070078;28;20362;-55
2023/04/07 04:53:49;;;;;;;7.15;3.83;;;2.10;86.60;;;;;;5084020;28;20016;-57
2023/04/07 04:56:15;;;;;;;10.88;4.90;;;2.20;85.70;;;;;;5070089;28;20025;-56
2023/04/07 04:58:44;;;;;;;8.55;4.75;;;2.20;84.90;;;;;;5084880;28;20024;-59
2023/04/07 05:01:11;;;;;;;8.07;4.60;;;2.30;84.60;;;;;;5068550;28;20024;-55
2023/04/07 05:03:36;;;;;;;9.05;5.10;;;2.40;84.70;;;;;;5085462;28;20047;-56
2023/04/07 05:06:02;;;;;;;8.63;4.70;;;2.40;85.00;;;;;;5078457;28;20036;-54
2023/04/07 05:08:27;;;;;;;10.90;4.97;;;2.50;86.90;;;;;;5067487;28;20034;-55
2023/04/07 05:10:54;;;;;;;9.20;4.47;;;2.60;87.10;;;;;;5088391;28;20104;-58
2023/04/07 05:13:19;;;;;;;10.48;4.80;;;2.60;85.90;;;;;;5089281;28;20523;-58
2023/04/07 05:15:45;;;;;;;10.18;5.20;;;2.60;84.30;;;;;;5067792;28;20027;-58
2023/04/07 05:18:11;;;;;;;7.88;4.93;;;2.60;84.20;;;;;;5088928;28;20563;-59
2023/04/07 05:20:36;;;;;;;8.68;5.00;;;2.70;83.80;;;;;;5067863;28;20024;-58
2023/04/07 05:23:02;;;;;;;9.73;4.88;;;2.70;85.90;;;;;;5088597;28;20020;-58
2023/04/07 05:25:28;;;;;;;11.35;4.75;;;2.70;85.60;;;;;;5067884;28;20373;-59
2023/04/07 05:27:53;;;;;;;9.90;5.40;;;2.80;84.40;;;;;;5088550;28;20028;-58
2023/04/07 05:30:19;;;;;;;11.32;5.18;;;2.90;84.50;;;;;;5067662;28;20497;-58
2023/04/07 05:32:44;;;;;;;9.93;4.93;;;3.00;83.90;;;;;;5083777;28;20052;-58
2023/04/07 05:35:10;;;;;;;12.07;4.88;;;3.10;83.90;;;;;;5082306;28;20032;-59
2023/04/07 05:37:35;;;;;;;7.68;4.65;;;3.20;84.00;;;;;;5089085;28;20055;-59
2023/04/07 05:40:01;;;;;;;8.20;4.90;;;3.20;84.00;;;;;;5067549;28;20024;-58
2023/04/07 05:42:27;;;;;;;9.55;5.25;;;3.30;82.80;;;;;;5088548;28;20051;-58
2023/04/07 05:44:52;;;;;;;10.52;5.18;;;3.40;81.50;;;;;;5067578;28;20044;-60
2023/04/07 05:47:18;;;;;;;11.57;5.45;;;3.50;81.20;;;;;;5088107;28;20093;-59
2023/04/07 05:49:47;;;;;;;9.82;6.57;;;3.60;82.20;;;;;;5066984;28;20085;-58
2023/04/07 05:52:13;;;;;;;10.23;6.22;;;3.70;81.00;;;;;;5087389;28;20567;-59
2023/04/07 05:54:42;;;;;;;13.48;8.60;;;3.80;80.20;;;;;;5077639;28;20027;-59
2023/04/07 05:57:07;;;;;;;22.92;10.77;;;3.90;79.00;;;;;;5088796;28;20032;-59
2023/04/07 05:59:34;;;;;;;15.63;8.23;;;4.00;78.10;;;;;;5077191;28;20429;-58
2023/04/07 06:01:59;;;;;;;16.92;8.90;;;4.10;77.70;;;;;;5088509;28;20044;-58
2023/04/07 06:04:25;;;;;;;17.38;9.73;;;4.20;77.20;;;;;;5075759;28;20035;-54
2023/04/07 06:06:53;;;;;;;16.02;9.15;;;4.30;76.70;;;;;;5082856;28;20036;-59
2023/04/07 06:09:22;;;;;;;16.27;9.68;;;4.40;76.40;;;;;;5066445;28;20017;-59
2023/04/07 06:11:48;;;;;;;14.18;8.80;;;4.50;75.90;;;;;;5088413;28;20556;-59
2023/04/07 06:14:14;;;;;;;13.00;7.88;;;4.50;74.90;;;;;;5067414;28;20116;-59
2023/04/07 06:16:39;;;;;;;16.27;8.25;;;4.70;74.40;;;;;;5087721;28;20028;-58
2023/04/07 06:19:06;;;;;;;13.20;6.75;;;4.80;73.70;;;;;;5067326;28;20021;-59
2023/04/07 06:21:32;;;;;;;11.55;6.18;;;4.90;73.00;;;;;;5088009;28;20035;-60
2023/04/07 06:23:57;;;;;;;12.57;7.05;;;5.00;70.70;;;;;;5066957;28;20029;-59
2023/04/07 06:26:23;;;;;;;10.70;6.43;;;5.20;69.60;;;;;;5087992;28;20040;-59
2023/04/07 06:28:49;;;;;;;12.98;7.30;;;5.30;65.80;;;;;;5067321;28;20095;-59
2023/04/07 06:31:15;;;;;;;12.68;6.75;;;5.40;64.20;;;;;;5087884;28;20040;-58
2023/04/07 06:33:40;;;;;;;11.23;6.40;;;5.60;64.00;;;;;;5063899;28;20036;-58
2023/04/07 06:36:06;;;;;;;13.07;6.75;;;5.70;64.90;;;;;;5074938;28;20164;-59
2023/04/07 06:38:32;;;;;;;13.40;6.57;;;5.80;61.40;;;;;;5083757;28;20035;-59
2023/04/07 06:40:57;;;;;;;12.25;7.38;;;5.80;61.30;;;;;;5068625;28;20104;-59
2023/04/07 06:43:22;;;;;;;13.93;6.30;;;5.80;59.70;;;;;;5083611;28;20028;-58
2023/04/07 06:45:48;;;;;;;9.35;5.70;;;5.90;60.40;;;;;;5083831;28;20028;-59
2023/04/07 06:48:13;;;;;;;12.75;5.88;;;6.00;58.80;;;;;;5086356;28;20138;-59
2023/04/07 06:50:39;;;;;;;11.68;6.60;;;6.10;58.20;;;;;;5064929;28;20033;-57
2023/04/07 06:53:04;;;;;;;13.40;6.28;;;6.20;57.60;;;;;;5066938;28;20548;-59
2023/04/07 06:55:30;;;;;;;13.50;7.05;;;6.20;56.70;;;;;;5072958;28;20103;-59
2023/04/07 06:57:56;;;;;;;14.02;6.97;;;6.20;56.20;;;;;;5068668;28;20097;-59
2023/04/07 07:00:24;;;;;;;11.43;6.50;;;6.30;55.80;;;;;;5072799;28;20037;-59
2023/04/07 07:02:50;;;;;;;10.73;6.13;;;6.30;55.60;;;;;;5088965;28;20039;-59
2023/04/07 07:05:15;;;;;;;12.10;6.35;;;6.30;54.90;;;;;;5074609;28;20487;-59
2023/04/07 07:07:41;;;;;;;9.63;5.80;;;6.30;54.80;;;;;;5084762;28;20028;-59
2023/04/07 07:10:09;;;;;;;11.68;6.25;;;6.30;53.80;;;;;;5069667;28;20036;-60
2023/04/07 07:12:35;;;;;;;10.02;5.55;;;6.20;54.40;;;;;;5069900;28;20037;-60
2023/04/07 07:15:00;;;;;;;10.30;6.05;;;6.10;54.90;;;;;;5069792;28;20676;-60
2023/04/07 07:17:26;;;;;;;8.20;5.68;;;6.10;54.80;;;;;;5085463;28;20752;-59
2023/04/07 07:19:51;;;;;;;8.02;4.97;;;6.20;54.00;;;;;;5088231;28;20537;-60
2023/04/07 07:22:17;;;;;;;12.98;6.00;;;6.20;54.50;;;;;;5066576;28;20040;-60
2023/04/07 07:24:42;;;;;;;10.60;5.95;;;6.30;54.80;;;;;;5085592;28;20269;-57
2023/04/07 07:27:08;;;;;;;8.52;5.32;;;6.20;53.90;;;;;;5086344;28;20035;-58
2023/04/07 07:29:33;;;;;;;12.43;5.22;;;6.30;54.80;;;;;;5071540;28;20032;-58
2023/04/07 07:31:59;;;;;;;8.95;4.95;;;6.40;54.90;;;;;;5085459;28;20036;-58
2023/04/07 07:34:24;;;;;;;10.77;6.38;;;6.50;53.10;;;;;;5068757;28;20041;-58
2023/04/07 07:36:50;;;;;;;10.57;5.15;;;6.50;52.50;;;;;;5084681;28;20066;-58
2023/04/07 07:39:15;;;;;;;10.18;5.20;;;6.60;53.40;;;;;;5083228;28;20040;-57
2023/04/07 07:41:41;;;;;;;8.55;5.43;;;6.70;52.70;;;;;;5085682;28;20043;-57
2023/04/07 07:44:06;;;;;;;12.00;4.97;;;6.90;52.60;;;;;;5069229;28;20035;-57
2023/04/07 07:46:32;;;;;;;8.18;4.40;;;7.00;50.00;;;;;;5080252;28;20081;-58
2023/04/07 07:48:57;;;;;;;7.38;4.47;;;7.10;50.60;;;;;;5070899;28;20500;-58
2023/04/07 07:51:23;;;;;;;6.30;4.05;;;7.20;46.20;;;;;;5081430;28;20024;-59
2023/04/07 07:53:48;;;;;;;9.15;5.00;;;7.10;44.70;;;;;;5087222;28;20047;-60
2023/04/07 07:56:14;;;;;;;8.40;4.45;;;7.20;44.00;;;;;;5064133;28;20405;-58
2023/04/07 07:58:40;;;;;;;7.53;4.43;;;7.10;37.30;;;;;;5075637;28;20028;-59
2023/04/07 08:01:05;;;;;;;6.45;3.53;;;6.90;33.90;;;;;;5088204;28;20078;-58
2023/04/07 08:03:31;;;;;;;7.32;4.30;;;6.90;32.60;;;;;;5066214;28;20574;-58
2023/04/07 08:05:56;;;;;;;6.82;3.90;;;6.80;31.90;;;;;;5068891;28;20032;-59
2023/04/07 08:08:22;;;;;;;6.97;3.78;;;6.90;34.90;;;;;;5084334;28;20028;-59
2023/04/07 08:10:47;;;;;;;6.43;4.05;;;7.00;33.00;;;;;;5068943;28;20697;-58
2023/04/07 08:13:13;;;;;;;6.43;3.65;;;7.10;34.70;;;;;;5081038;28;20149;-59
2023/04/07 08:15:39;;;;;;;5.93;3.50;;;7.20;32.30;;;;;;5067642;28;20624;-59
2023/04/07 08:18:05;;;;;;;9.40;4.38;;;7.30;32.00;;;;;;5079363;28;20027;-59
2023/04/07 08:20:32;;;;;;;7.22;4.78;;;7.30;31.90;;;;;;5089110;28;20020;-59
2023/04/07 08:22:58;;;;;;;7.75;4.55;;;7.10;31.40;;;;;;5071534;28;20023;-59
2023/04/07 08:25:24;;;;;;;5.22;3.30;;;7.00;30.70;;;;;;5069301;28;20028;-58
2023/04/07 08:27:49;;;;;;;11.85;4.45;;;7.10;33.50;;;;;;5074476;28;20028;-58
2023/04/07 08:30:15;;;;;;;7.45;4.18;;;7.30;32.50;;;;;;5078525;28;20024;-57
2023/04/07 08:32:43;;;;;;;7.95;4.32;;;7.30;30.30;;;;;;5075540;28;20032;-57
2023/04/07 08:35:10;;;;;;;7.82;4.20;;;7.20;31.50;;;;;;5079719;28;20550;-57
2023/04/07 08:37:38;;;;;;;8.55;3.97;;;7.20;31.90;;;;;;5062406;28;20655;-58
2023/04/07 08:40:04;;;;;;;7.53;4.03;;;7.20;31.50;;;;;;5066932;28;20052;-57
2023/04/07 08:42:31;;;;;;;7.35;4.07;;;7.10;31.90;;;;;;5068888;28;20028;-57
2023/04/07 08:45:02;;;;;;;7.03;4.35;;;7.20;32.60;;;;;;5049211;28;20040;-57
2023/04/07 08:47:30;;;;;;;6.68;4.13;;;7.20;32.50;;;;;;5056978;28;20040;-58
2023/04/07 08:49:59;;;;;;;7.93;4.05;;;7.30;33.90;;;;;;5089502;28;20030;-57
2023/04/07 08:52:34;;;;;;;6.45;3.47;;;7.40;31.90;;;;;;5066635;28;20036;-57
2023/04/07 08:55:02;;;;;;;11.40;3.88;;;7.50;33.30;;;;;;5069363;28;20036;-57
2023/04/07 08:57:29;;;;;;;9.50;3.85;;;7.50;32.80;;;;;;5073334;28;20028;-57
2023/04/07 08:59:57;;;;;;;6.60;3.83;;;7.50;30.40;;;;;;5068773;28;20029;-57
2023/04/07 09:02:22;;;;;;;7.53;3.95;;;7.30;30.90;;;;;;5076374;28;20038;-58
2023/04/07 09:04:48;;;;;;;8.15;3.97;;;7.20;30.70;;;;;;5069497;28;20106;-56
2023/04/07 09:07:13;;;;;;;7.57;3.92;;;7.20;30.70;;;;;;5072726;28;20035;-56
2023/04/07 09:09:40;;;;;;;5.20;3.25;;;7.20;31.20;;;;;;5086455;28;20672;-57
2023/04/07 09:12:05;;;;;;;7.47;3.92;;;7.20;30.20;;;;;;5089058;28;20021;-57
2023/04/07 09:14:31;;;;;;;5.20;3.35;;;7.10;28.60;;;;;;5065807;28;20029;-56
2023/04/07 09:16:58;;;;;;;5.85;2.88;;;7.10;28.80;;;;;;5071561;28;20035;-56
2023/04/07 09:19:26;;;;;;;4.78;3.28;;;7.20;30.00;;;;;;5065289;28;20037;-54
2023/04/07 09:21:52;;;;;;;7.45;3.28;;;7.10;25.90;;;;;;5064534;28;20116;-58
2023/04/07 09:24:26;;;;;;;6.88;2.85;;;7.10;27.60;;;;;;5082747;28;20039;-57
2023/04/07 09:27:19;;;;;;;5.30;3.05;;;7.00;26.80;;;;;;5081684;28;20036;-55
2023/04/07 09:29:46;;;;;;;4.25;2.83;;;7.00;26.40;;;;;;5059669;28;20032;-58
2023/04/07 09:32:20;;;;;;;4.25;2.70;;;7.00;27.50;;;;;;5085473;28;20052;-57
2023/04/07 09:34:46;;;;;;;4.30;2.80;;;7.00;25.90;;;;;;5074950;28;20028;-55
2023/04/07 09:37:21;;;;;;;5.38;3.08;;;6.90;25.20;;;;;;5066767;28;20097;-57
2023/04/07 09:39:52;;;;;;;6.70;3.25;;;6.90;25.60;;;;;;5056907;28;20111;-57
2023/04/07 09:42:18;;;;;;;5.70;2.95;;;6.80;25.30;;;;;;5066280;28;20032;-56
2023/04/07 09:44:44;;;;;;;6.40;3.50;;;6.80;26.20;;;;;;5081440;28;20036;-57
2023/04/07 09:47:10;;;;;;;6.47;3.10;;;6.90;26.80;;;;;;5067431;28;20833;-56
2023/04/07 09:49:49;;;;;;;6.78;3.03;;;6.80;25.70;;;;;;5084079;28;20407;-57
2023/04/07 09:52:16;;;;;;;7.38;3.30;;;6.80;24.60;;;;;;5055098;28;20028;-57
2023/04/07 09:54:41;;;;;;;5.75;2.47;;;6.80;25.30;;;;;;5076073;28;20038;-56
2023/04/07 09:57:09;;;;;;;5.40;2.85;;;6.80;23.20;;;;;;5082782;28;20107;-57
2023/04/07 09:59:36;;;;;;;7.60;3.17;;;6.90;24.40;;;;;;5078492;28;20036;-56
2023/04/07 10:02:03;;;;;;;6.68;3.30;;;7.00;27.90;;;;;;5086257;28;20485;-55
2023/04/07 10:04:29;;;;;;;4.35;2.33;;;7.10;28.50;;;;;;5066637;28;20471;-58
2023/04/07 10:06:56;;;;;;;6.47;2.70;;;7.20;28.90;;;;;;5063226;28;20032;-58
2023/04/07 10:09:23;;;;;;;6.75;3.40;;;7.30;27.90;;;;;;5085628;28;20020;-57
2023/04/07 10:11:49;;;;;;;6.63;3.38;;;7.10;30.60;;;;;;5087650;28;20031;-56
2023/04/07 10:14:16;;;;;;;6.07;3.47;;;7.00;32.90;;;;;;5066320;28;20024;-54
2023/04/07 10:16:42;;;;;;;5.57;2.83;;;7.00;35.60;;;;;;5087382;28;20047;-57
2023/04/07 10:19:08;;;;;;;6.47;3.08;;;7.10;36.00;;;;;;5065038;28;20059;-56
2023/04/07 10:21:37;;;;;;;5.90;3.65;;;7.10;37.80;;;;;;5087196;28;20519;-55
2023/04/07 10:24:23;;;;;;;10.15;4.35;;;7.10;40.80;;;;;;5066095;28;20141;-57
2023/04/07 10:27:01;;;;;;;8.90;3.70;;;7.00;44.70;;;;;;5047567;28;20041;-57
2023/04/07 10:29:30;;;;;;;8.18;4.47;;;7.10;45.90;;;;;;5079641;28;20460;-57
2023/04/07 10:31:58;;;;;;;8.23;4.65;;;7.10;48.80;;;;;;5087940;28;20036;-55
2023/04/07 10:34:54;;;;;;;8.60;4.53;;;7.10;52.70;;;;;;5065853;28;20412;-57
2023/04/07 10:37:21;;;;;;;8.40;4.43;;;7.10;52.70;;;;;;5089725;28;20020;-57
2023/04/07 10:40:10;;;;;;;10.27;5.13;;;7.10;55.50;;;;;;5089746;28;20575;-56
2023/04/07 10:42:35;;;;;;;7.57;5.13;;;6.70;56.20;;;;;;5052277;28;20100;-56
2023/04/07 10:45:02;;;;;;;7.07;4.38;;;6.50;58.90;;;;;;5091719;28;20108;-57
2023/04/07 10:47:28;;;;;;;11.88;5.57;;;6.70;63.30;;;;;;5070085;28;20142;-56
2023/04/07 10:50:18;;;;;;;9.90;5.85;;;6.60;68.70;;;;;;5091480;28;20699;-56
2023/04/07 10:52:45;;;;;;;11.32;7.65;;;6.40;74.30;;;;;;5072671;28;20501;-56
2023/04/07 10:55:29;;;;;;;10.52;7.25;;;6.40;78.70;;;;;;5091571;28;20043;-57
2023/04/07 10:58:30;;;;;;;12.15;7.40;;;6.40;81.20;;;;;;5073879;28;20012;-57
2023/04/07 11:00:56;;;;;;;17.13;10.48;;;6.60;82.40;;;;;;5071591;28;20636;-54
2023/04/07 11:03:22;;;;;;;16.77;11.43;;;6.50;88.50;;;;;;5088531;28;20111;-55
2023/04/07 11:05:48;;;;;;;18.27;12.40;;;6.40;89.70;;;;;;5078172;28;20023;-55
2023/04/07 11:08:14;;;;;;;18.38;12.90;;;6.30;91.00;;;;;;5076414;28;20563;-55
2023/04/07 11:10:46;;;;;;;20.38;13.30;;;6.30;91.40;;;;;;5091403;28;20633;-54
2023/04/07 11:13:11;;;;;;;21.88;14.68;;;6.30;92.60;;;;;;5062412;28;20022;-62
2023/04/07 11:15:37;;;;;;;22.45;15.88;;;6.30;94.20;;;;;;5090920;28;20100;-56
2023/04/07 11:18:22;;;;;;;18.98;13.35;;;6.20;94.00;;;;;;5074810;28;20032;-56
2023/04/07 11:20:57;;;;;;;23.92;15.10;;;6.20;93.50;;;;;;5091191;28;20103;-58
2023/04/07 11:23:24;;;;;;;24.65;14.63;;;6.20;94.00;;;;;;5088948;28;20129;-58
2023/04/07 11:25:52;;;;;;;23.50;14.60;;;6.20;94.80;;;;;;5080152;28;20052;-56
2023/04/07 11:28:18;;;;;;;25.63;16.55;;;6.30;93.90;;;;;;5070797;28;20129;-57
2023/04/07 11:30:51;;;;;;;26.08;17.88;;;6.30;94.70;;;;;;5087966;28;20492;-57
2023/04/07 11:33:18;;;;;;;28.23;17.45;;;6.10;95.10;;;;;;5067859;28;20834;-57
2023/04/07 11:35:55;;;;;;;34.78;20.60;;;6.10;97.00;;;;;;5079192;28;20492;-56
2023/04/07 11:38:22;;;;;;;35.08;20.17;;;6.00;96.00;;;;;;5053958;28;20039;-57
2023/04/07 11:40:48;;;;;;;35.60;22.23;;;5.90;98.70;;;;;;5071905;28;20323;-55
2023/04/07 11:43:22;;;;;;;39.63;24.58;;;5.80;99.40;;;;;;5076179;28;20509;-57
2023/04/07 11:46:14;;;;;;;37.42;22.17;;;5.80;99.90;;;;;;5062716;28;20032;-56
2023/04/07 11:48:42;;;;;;;31.95;20.52;;;5.70;99.90;;;;;;5060301;28;20032;-56
2023/04/07 11:51:22;;;;;;;40.30;22.58;;;5.80;99.90;;;;;;5075436;28;20063;-57
2023/04/07 11:53:54;;;;;;;37.63;23.25;;;6.00;99.90;;;;;;5067936;28;20040;-55
2023/04/07 11:56:21;;;;;;;42.85;24.65;;;5.90;99.90;;;;;;5060420;28;20029;-56
2023/04/07 11:58:51;;;;;;;42.65;24.50;;;5.80;99.90;;;;;;5072391;28;20027;-56
2023/04/07 12:01:17;;;;;;;39.70;23.83;;;5.60;99.90;;;;;;5073985;28;20033;-56
2023/04/07 12:04:03;;;;;;;43.70;22.35;;;5.50;99.90;;;;;;5085360;28;20036;-56
2023/04/07 12:06:32;;;;;;;35.75;22.13;;;5.40;99.90;;;;;;5081435;28;20299;-57
2023/04/07 12:08:57;;;;;;;35.35;20.92;;;5.50;99.90;;;;;;5063798;28;20078;-57
2023/04/07 12:11:24;;;;;;;35.00;21.02;;;5.70;99.90;;;;;;5079365;28;20404;-57
2023/04/07 12:13:49;;;;;;;31.13;19.13;;;5.80;99.90;;;;;;5083208;28;20032;-56
2023/04/07 12:16:15;;;;;;;32.05;18.60;;;5.90;99.90;;;;;;5067941;28;20046;-57
2023/04/07 12:18:40;;;;;;;25.48;16.95;;;6.00;99.90;;;;;;5073267;28;20028;-56
2023/04/07 12:21:06;;;;;;;29.20;18.02;;;6.40;99.90;;;;;;5065539;28;20527;-56
2023/04/07 12:23:31;;;;;;;27.23;16.35;;;6.50;98.70;;;;;;5084959;28;20028;-53
2023/04/07 12:25:57;;;;;;;23.45;14.57;;;6.70;98.00;;;;;;5068467;28;20025;-56
2023/04/07 12:28:22;;;;;;;25.00;15.07;;;6.70;96.70;;;;;;5071228;28;20055;-55
2023/04/07 12:30:48;;;;;;;23.42;15.48;;;6.90;95.10;;;;;;5087198;28;20020;-56
2023/04/07 12:33:13;;;;;;;24.08;16.17;;;7.00;93.20;;;;;;5073841;28;20096;-53
2023/04/07 12:35:39;;;;;;;30.48;16.45;;;6.90;92.80;;;;;;5085338;28;20054;-56
2023/04/07 12:38:04;;;;;;;25.73;16.02;;;6.90;93.20;;;;;;5066239;28;20081;-54
2023/04/07 12:40:31;;;;;;;30.52;16.85;;;6.90;93.90;;;;;;5066878;28;20257;-58
2023/04/07 12:42:59;;;;;;;32.97;18.45;;;6.90;94.10;;;;;;5079429;28;20025;-57
2023/04/07 12:45:25;;;;;;;35.60;19.05;;;6.90;93.90;;;;;;5069110;28;20086;-58
2023/04/07 12:47:50;;;;;;;32.75;18.02;;;6.90;94.50;;;;;;5077969;28;20041;-57
2023/04/07 12:50:16;;;;;;;33.85;19.50;;;6.80;94.20;;;;;;5070063;28;20384;-57